Time;durP1;ratioP1;P1;durP2;ratioP2;P2;SDS_P1;SDS_P2;PMS_P1;PMS_P2;Temp;Humidity;BMP_temperature;BMP_pressure;BME280_temperature;BME280_humidity;BME280_pressure;Samples;Min_cycle;Max_cycle;Signal;HPM_P1;HPM_P2
2022/07/16 00:02:27;;;;;;;4.23;2.70;;;;;;;;;;5094056;28;20398;-67
2022/07/16 00:04:54;;;;;;;5.20;2.83;;;;;;;;;;5093524;28;20537;-67
2022/07/16 00:07:21;;;;;;;4.17;3.00;;;;;;;;;;5093704;28;20485;-67
2022/07/16 00:09:48;;;;;;;6.77;3.73;;;;;;;;;;5093224;28;20532;-67
2022/07/16 00:12:16;;;;;;;3.43;3.13;;;;;;;;;;5093587;28;20444;-67
2022/07/16 00:14:43;;;;;;;4.13;2.93;;;;;;;;;;5093931;28;20877;-67
2022/07/16 00:17:10;;;;;;;7.60;3.10;;;;;;;;;;5093186;28;20574;-66
2022/07/16 00:19:38;;;;;;;7.00;2.90;;;;;;;;;;5093481;28;20451;-67
2022/07/16 00:22:05;;;;;;;8.23;3.00;;;;;;;;;;5093683;28;20542;-67
2022/07/16 00:24:32;;;;;;;5.40;2.90;;;;;;;;;;5093427;28;20542;-67
2022/07/16 00:26:59;;;;;;;3.20;2.90;;;;;;;;;;5093214;28;20448;-66
2022/07/16 00:29:27;;;;;;;3.70;3.10;;;;;;;;;;5093089;28;20528;-67
2022/07/16 00:31:54;;;;;;;3.30;3.10;;;;;;;;;;5093473;28;20522;-66
2022/07/16 00:34:22;;;;;;;4.17;2.97;;;;;;;;;;5093321;28;20640;-67
2022/07/16 00:36:51;;;;;;;6.87;2.93;;;;;;;;;;5093210;28;20998;-66
2022/07/16 00:39:19;;;;;;;5.47;3.30;;;;;;;;;;5093724;28;20446;-67
2022/07/16 00:41:47;;;;;;;3.67;2.93;;;;;;;;;;5093568;28;20531;-66
2022/07/16 00:44:15;;;;;;;3.07;2.80;;;;;;;;;;5093533;28;20440;-68
2022/07/16 00:46:43;;;;;;;4.20;3.70;;;;;;;;;;5093338;28;20434;-67
2022/07/16 00:49:12;;;;;;;4.23;3.43;;;;;;;;;;5093251;28;20805;-66
2022/07/16 00:51:43;;;;;;;5.10;3.67;;;;;;;;;;5094381;28;20473;-66
2022/07/16 00:54:11;;;;;;;3.70;3.33;;;;;;;;;;5097311;28;20442;-66
2022/07/16 00:56:39;;;;;;;7.53;3.50;;;;;;;;;;5096988;28;20473;-66
2022/07/16 00:59:06;;;;;;;4.00;3.60;;;;;;;;;;5096773;28;20936;-66
2022/07/16 01:01:34;;;;;;;3.70;3.40;;;;;;;;;;5096924;28;20443;-67
2022/07/16 01:04:03;;;;;;;6.93;3.60;;;;;;;;;;5096937;28;20491;-67
2022/07/16 01:06:30;;;;;;;8.73;3.73;;;;;;;;;;5096842;28;20444;-67
2022/07/16 01:08:58;;;;;;;5.10;3.53;;;;;;;;;;5097064;28;20436;-66
2022/07/16 01:11:27;;;;;;;3.87;3.43;;;;;;;;;;5096888;28;20529;-67
2022/07/16 01:13:54;;;;;;;4.47;3.57;;;;;;;;;;5096773;28;20468;-66
2022/07/16 01:16:21;;;;;;;6.40;3.50;;;;;;;;;;5096556;28;20485;-67
2022/07/16 01:18:49;;;;;;;4.23;3.40;;;;;;;;;;5096950;28;20531;-66
2022/07/16 01:21:17;;;;;;;4.67;4.17;;;;;;;;;;5096626;28;20869;-67
2022/07/16 01:23:47;;;;;;;8.10;4.40;;;;;;;;;;5096238;28;20939;-66
2022/07/16 01:26:14;;;;;;;5.07;3.20;;;;;;;;;;5096214;28;20426;-66
2022/07/16 01:28:41;;;;;;;5.47;3.40;;;;;;;;;;5096200;28;20455;-67
2022/07/16 01:31:09;;;;;;;3.67;3.37;;;;;;;;;;5096343;28;20540;-66
2022/07/16 01:33:38;;;;;;;3.63;3.33;;;;;;;;;;5096410;28;20448;-67
2022/07/16 01:36:06;;;;;;;6.33;3.73;;;;;;;;;;5096411;28;20988;-67
2022/07/16 01:38:34;;;;;;;3.43;3.00;;;;;;;;;;5095922;28;20438;-67
2022/07/16 01:41:02;;;;;;;4.07;3.40;;;;;;;;;;5096191;28;20453;-67
2022/07/16 01:43:30;;;;;;;3.43;3.03;;;;;;;;;;5096544;28;20957;-67
2022/07/16 01:45:58;;;;;;;4.63;3.50;;;;;;;;;;5096119;28;20519;-67
2022/07/16 01:48:25;;;;;;;4.37;3.50;;;;;;;;;;5095813;28;20528;-67
2022/07/16 01:50:53;;;;;;;5.00;3.63;;;;;;;;;;5096194;28;20436;-67
2022/07/16 01:53:20;;;;;;;4.33;3.63;;;;;;;;;;5096080;28;20444;-66
2022/07/16 01:55:48;;;;;;;5.10;3.70;;;;;;;;;;5095489;28;20556;-67
2022/07/16 01:58:16;;;;;;;4.60;3.80;;;;;;;;;;5095623;28;20442;-67
2022/07/16 02:00:45;;;;;;;9.20;3.20;;;;;;;;;;5095833;28;20436;-67
2022/07/16 02:03:13;;;;;;;5.60;3.73;;;;;;;;;;5095597;28;20438;-67
2022/07/16 02:05:40;;;;;;;4.47;3.20;;;;;;;;;;5096272;28;20796;-67
2022/07/16 02:08:07;;;;;;;6.63;3.90;;;;;;;;;;5095763;28;20440;-66
2022/07/16 02:10:35;;;;;;;4.00;3.63;;;;;;;;;;5095283;28;20475;-67
2022/07/16 02:13:02;;;;;;;3.97;3.57;;;;;;;;;;5095673;28;20521;-66
2022/07/16 02:15:31;;;;;;;4.30;3.70;;;;;;;;;;5095322;28;20448;-67
2022/07/16 02:17:58;;;;;;;6.97;3.30;;;;;;;;;;5095537;28;20482;-66
2022/07/16 02:20:25;;;;;;;5.37;3.40;;;;;;;;;;5095242;28;20979;-66
2022/07/16 02:22:53;;;;;;;4.30;3.90;;;;;;;;;;5095420;28;20477;-67
2022/07/16 02:25:21;;;;;;;3.97;3.57;;;;;;;;;;5095742;28;20483;-67
2022/07/16 02:30:34;;;;;;;4.37;3.60;;;;;;;;;;5095731;28;20878;-67
2022/07/16 02:33:01;;;;;;;4.23;3.60;;;;;;;;;;5095170;28;20960;-67
2022/07/16 02:35:29;;;;;;;3.90;3.50;;;;;;;;;;5095116;28;20446;-67
2022/07/16 02:37:56;;;;;;;7.60;3.97;;;;;;;;;;5094980;28;20485;-67
2022/07/16 02:40:23;;;;;;;6.43;3.77;;;;;;;;;;5095243;28;20531;-67
2022/07/16 02:42:50;;;;;;;9.50;4.07;;;;;;;;;;5094659;28;20524;-66
2022/07/16 02:45:18;;;;;;;5.63;3.80;;;;;;;;;;5095408;28;20440;-67
2022/07/16 02:47:47;;;;;;;4.50;3.90;;;;;;;;;;5094803;28;20454;-67
2022/07/16 02:50:14;;;;;;;4.40;3.80;;;;;;;;;;5095437;28;20791;-67
2022/07/16 02:52:41;;;;;;;5.50;3.50;;;;;;;;;;5094966;28;20438;-67
2022/07/16 02:55:09;;;;;;;6.67;3.80;;;;;;;;;;5095092;28;20502;-67
2022/07/16 02:57:36;;;;;;;4.97;3.53;;;;;;;;;;5094619;28;20872;-67
2022/07/16 03:00:03;;;;;;;4.77;3.27;;;;;;;;;;5094710;28;20514;-67
2022/07/16 03:02:31;;;;;;;4.20;3.90;;;;;;;;;;5094609;28;20476;-67
2022/07/16 03:04:59;;;;;;;4.20;3.87;;;;;;;;;;5094824;28;20845;-66
2022/07/16 03:07:26;;;;;;;5.33;3.60;;;;;;;;;;5094497;28;20457;-67
2022/07/16 03:09:54;;;;;;;4.47;3.70;;;;;;;;;;5094583;28;20444;-66
2022/07/16 03:12:22;;;;;;;5.20;3.93;;;;;;;;;;5094450;28;20447;-67
2022/07/16 03:14:49;;;;;;;4.63;4.10;;;;;;;;;;5094163;28;20560;-66
2022/07/16 03:17:16;;;;;;;5.60;4.13;;;;;;;;;;5093986;28;20472;-67
2022/07/16 03:19:43;;;;;;;4.50;4.07;;;;;;;;;;5094554;28;20880;-67
2022/07/16 03:22:12;;;;;;;7.40;3.90;;;;;;;;;;5094297;28;20517;-67
2022/07/16 03:24:39;;;;;;;4.10;3.70;;;;;;;;;;5094313;28;20494;-67
2022/07/16 03:27:06;;;;;;;6.20;4.63;;;;;;;;;;5094165;28;20535;-67
2022/07/16 03:29:34;;;;;;;9.43;4.20;;;;;;;;;;5093950;28;20934;-67
2022/07/16 03:32:01;;;;;;;4.40;4.00;;;;;;;;;;5093964;28;20533;-67
2022/07/16 03:34:28;;;;;;;4.67;3.80;;;;;;;;;;5094063;28;20989;-67
2022/07/16 03:36:56;;;;;;;6.00;4.40;;;;;;;;;;5093615;28;21053;-65
2022/07/16 03:39:24;;;;;;;6.53;4.20;;;;;;;;;;5094040;28;20447;-67
2022/07/16 03:41:51;;;;;;;6.37;4.00;;;;;;;;;;5094663;28;20470;-66
2022/07/16 03:44:18;;;;;;;4.37;3.70;;;;;;;;;;5094107;28;20526;-67
2022/07/16 03:46:46;;;;;;;7.57;4.30;;;;;;;;;;5093933;28;20447;-67
2022/07/16 03:49:13;;;;;;;6.37;4.13;;;;;;;;;;5093937;28;20806;-67
2022/07/16 03:51:40;;;;;;;3.70;3.40;;;;;;;;;;5087579;28;20529;-67
2022/07/16 03:54:08;;;;;;;7.63;4.20;;;;;;;;;;5072823;28;20453;-67
2022/07/16 03:56:36;;;;;;;6.20;4.17;;;;;;;;;;5072730;28;20922;-67
2022/07/16 03:59:05;;;;;;;4.53;4.10;;;;;;;;;;5073091;28;20524;-67
2022/07/16 04:01:32;;;;;;;4.30;3.80;;;;;;;;;;5072839;28;20494;-67
2022/07/16 04:03:59;;;;;;;7.27;4.20;;;;;;;;;;5073350;28;20519;-67
2022/07/16 04:06:26;;;;;;;7.10;4.40;;;;;;;;;;5073052;28;20537;-67
2022/07/16 04:08:53;;;;;;;5.47;3.40;;;;;;;;;;5072973;28;20452;-66
2022/07/16 04:11:21;;;;;;;7.17;4.20;;;;;;;;;;5072873;28;20444;-66
2022/07/16 04:13:49;;;;;;;4.13;3.57;;;;;;;;;;5073255;28;20493;-67
2022/07/16 04:16:16;;;;;;;6.80;4.17;;;;;;;;;;5073288;28;20445;-67
2022/07/16 04:18:44;;;;;;;9.20;3.23;;;;;;;;;;5072811;28;20479;-67
2022/07/16 04:21:11;;;;;;;4.57;3.47;;;;;;;;;;5074699;28;20534;-67
2022/07/16 04:23:38;;;;;;;7.37;3.60;;;;;;;;;;5093349;28;20441;-67
2022/07/16 04:26:05;;;;;;;5.87;4.30;;;;;;;;;;5094289;28;20447;-67
2022/07/16 04:28:33;;;;;;;3.70;3.40;;;;;;;;;;5097475;28;20444;-67
2022/07/16 04:31:01;;;;;;;4.40;3.37;;;;;;;;;;5097320;28;20526;-67
2022/07/16 04:33:28;;;;;;;3.97;3.20;;;;;;;;;;5097116;28;20437;-67
2022/07/16 04:35:56;;;;;;;4.40;3.57;;;;;;;;;;5097488;28;20799;-67
2022/07/16 04:38:23;;;;;;;4.33;3.57;;;;;;;;;;5096906;28;20988;-66
2022/07/16 04:40:50;;;;;;;3.80;3.50;;;;;;;;;;5097337;28;20436;-66
2022/07/16 04:43:17;;;;;;;4.00;3.37;;;;;;;;;;5097231;28;20541;-67
2022/07/16 04:45:45;;;;;;;6.07;3.60;;;;;;;;;;5097293;28;20447;-67
2022/07/16 04:48:13;;;;;;;5.47;4.00;;;;;;;;;;5097144;28;20463;-66
2022/07/16 04:50:41;;;;;;;3.53;3.23;;;;;;;;;;5096837;28;20442;-66
2022/07/16 04:53:08;;;;;;;3.30;3.10;;;;;;;;;;5079819;28;20450;-67
2022/07/16 04:55:36;;;;;;;4.10;3.80;;;;;;;;;;5077061;28;20448;-67
2022/07/16 04:58:03;;;;;;;5.60;4.40;;;;;;;;;;5076610;28;20478;-67
2022/07/16 05:00:30;;;;;;;4.17;3.67;;;;;;;;;;5076726;28;20443;-66
2022/07/16 05:02:57;;;;;;;3.63;3.33;;;;;;;;;;5076516;28;20441;-67
2022/07/16 05:05:25;;;;;;;6.13;3.33;;;;;;;;;;5076234;28;20490;-67
2022/07/16 05:07:53;;;;;;;5.80;3.40;;;;;;;;;;5076431;28;20440;-67
2022/07/16 05:10:20;;;;;;;3.40;2.93;;;;;;;;;;5076545;28;20450;-67
2022/07/16 05:12:47;;;;;;;3.60;2.73;;;;;;;;;;5076121;28;20485;-66
2022/07/16 05:15:15;;;;;;;3.27;2.97;;;;;;;;;;5076224;28;21010;-67
2022/07/16 05:17:42;;;;;;;5.90;3.03;;;;;;;;;;5075930;28;20476;-67
2022/07/16 05:20:10;;;;;;;5.50;3.60;;;;;;;;;;5076241;28;20529;-66
2022/07/16 05:22:39;;;;;;;5.63;4.00;;;;;;;;;;5075835;28;20527;-67
2022/07/16 05:25:06;;;;;;;4.50;4.10;;;;;;;;;;5075636;28;20448;-67
2022/07/16 05:27:33;;;;;;;4.87;4.00;;;;;;;;;;5076048;28;20446;-67
2022/07/16 05:30:01;;;;;;;6.10;5.50;;;;;;;;;;5076182;28;20520;-68
2022/07/16 05:32:28;;;;;;;5.10;4.70;;;;;;;;;;5076083;28;20534;-68
2022/07/16 05:34:55;;;;;;;6.50;4.97;;;;;;;;;;5075958;28;20468;-67
2022/07/16 05:37:22;;;;;;;11.70;5.40;;;;;;;;;;5074951;28;21058;-67
2022/07/16 05:39:51;;;;;;;6.17;5.30;;;;;;;;;;5075909;28;20922;-67
2022/07/16 05:42:19;;;;;;;7.23;5.60;;;;;;;;;;5075934;28;20437;-67
2022/07/16 05:44:46;;;;;;;5.80;5.20;;;;;;;;;;5075790;28;20465;-67
2022/07/16 05:47:13;;;;;;;6.60;5.53;;;;;;;;;;5075662;28;20442;-67
2022/07/16 05:49:40;;;;;;;9.50;5.27;;;;;;;;;;5075358;28;20437;-67
2022/07/16 05:52:07;;;;;;;5.97;5.47;;;;;;;;;;5084950;28;20537;-67
2022/07/16 05:54:35;;;;;;;9.50;5.13;;;;;;;;;;5095752;28;20935;-67
2022/07/16 05:57:03;;;;;;;5.10;4.70;;;;;;;;;;5095921;28;20895;-67
2022/07/16 05:59:30;;;;;;;4.70;4.30;;;;;;;;;;5095988;28;20868;-67
2022/07/16 06:01:58;;;;;;;5.00;4.50;;;;;;;;;;5095800;28;20528;-67
2022/07/16 06:04:25;;;;;;;8.63;4.40;;;;;;;;;;5095174;28;20930;-66
2022/07/16 06:06:52;;;;;;;5.43;4.67;;;;;;;;;;5095623;28;20448;-67
2022/07/16 06:09:19;;;;;;;6.77;4.77;;;;;;;;;;5095174;28;20451;-67
2022/07/16 06:11:47;;;;;;;8.40;5.43;;;;;;;;;;5095754;28;20442;-66
2022/07/16 06:14:15;;;;;;;7.43;5.03;;;;;;;;;;5095390;28;20476;-67
2022/07/16 06:16:42;;;;;;;7.70;4.87;;;;;;;;;;5095493;28;20432;-66
2022/07/16 06:19:10;;;;;;;8.67;5.23;;;;;;;;;;5095234;28;20569;-67
2022/07/16 06:21:37;;;;;;;8.40;5.30;;;;;;;;;;5095353;28;20446;-67
2022/07/16 06:24:04;;;;;;;5.30;4.60;;;;;;;;;;5095250;28;20805;-67
2022/07/16 06:26:32;;;;;;;5.13;4.20;;;;;;;;;;5094999;28;20450;-67
2022/07/16 06:28:59;;;;;;;5.37;3.97;;;;;;;;;;5095240;28;20443;-67
2022/07/16 06:31:28;;;;;;;4.87;4.17;;;;;;;;;;5095148;28;20436;-67
2022/07/16 06:33:55;;;;;;;5.50;3.60;;;;;;;;;;5095164;28;20433;-67
2022/07/16 06:36:22;;;;;;;5.67;3.73;;;;;;;;;;5094722;28;20957;-67
2022/07/16 06:38:49;;;;;;;5.23;4.73;;;;;;;;;;5095102;28;20475;-67
2022/07/16 06:41:17;;;;;;;4.90;3.10;;;;;;;;;;5094938;28;20872;-67
2022/07/16 06:43:45;;;;;;;8.60;3.70;;;;;;;;;;5094539;28;20436;-65
2022/07/16 06:46:12;;;;;;;4.63;3.27;;;;;;;;;;5094992;28;20448;-67
2022/07/16 06:48:41;;;;;;;3.90;3.30;;;;;;;;;;5093771;28;20942;-66
2022/07/16 06:51:08;;;;;;;4.50;3.40;;;;;;;;;;5094490;28;20445;-67
2022/07/16 06:53:38;;;;;;;5.50;3.23;;;;;;;;;;5094835;28;20444;-67
2022/07/16 06:56:06;;;;;;;4.67;2.80;;;;;;;;;;5094955;28;20456;-66
2022/07/16 06:58:33;;;;;;;4.23;2.87;;;;;;;;;;5094346;28;20562;-66
2022/07/16 07:01:01;;;;;;;4.97;2.97;;;;;;;;;;5094585;28;20442;-66
2022/07/16 07:03:28;;;;;;;4.60;2.93;;;;;;;;;;5094467;28;20439;-66
2022/07/16 07:05:57;;;;;;;2.30;2.13;;;;;;;;;;5094526;28;20447;-66
2022/07/16 07:08:24;;;;;;;3.70;2.67;;;;;;;;;;5094253;28;20533;-66
2022/07/16 07:10:51;;;;;;;4.73;2.17;;;;;;;;;;5094551;28;20450;-66
2022/07/16 07:13:19;;;;;;;2.30;2.10;;;;;;;;;;5093916;28;20478;-67
2022/07/16 07:15:46;;;;;;;4.27;2.03;;;;;;;;;;5094699;28;20481;-67
2022/07/16 07:18:13;;;;;;;2.83;2.40;;;;;;;;;;5094001;28;20487;-67
2022/07/16 07:20:40;;;;;;;2.90;2.40;;;;;;;;;;5093909;28;20442;-67
2022/07/16 07:23:09;;;;;;;2.97;2.07;;;;;;;;;;5094083;28;20896;-67
2022/07/16 07:25:36;;;;;;;1.70;1.60;;;;;;;;;;5093778;28;20947;-66
2022/07/16 07:28:04;;;;;;;3.80;1.70;;;;;;;;;;5094117;28;20537;-66
2022/07/16 07:30:31;;;;;;;3.03;2.50;;;;;;;;;;5094022;28;20520;-67
2022/07/16 07:33:00;;;;;;;2.87;1.90;;;;;;;;;;5093789;28;20525;-66
2022/07/16 07:35:27;;;;;;;2.20;1.90;;;;;;;;;;5093838;28;20503;-67
2022/07/16 07:37:54;;;;;;;5.90;2.23;;;;;;;;;;5094057;28;20522;-67
2022/07/16 07:40:23;;;;;;;4.27;2.40;;;;;;;;;;5093904;28;20805;-67
2022/07/16 07:42:50;;;;;;;3.47;2.10;;;;;;;;;;5093658;28;20446;-67
2022/07/16 07:45:17;;;;;;;3.20;2.00;;;;;;;;;;5093815;28;20444;-67
2022/07/16 07:47:44;;;;;;;6.30;2.70;;;;;;;;;;5093997;28;20454;-67
2022/07/16 07:50:13;;;;;;;4.80;2.10;;;;;;;;;;5093974;28;20446;-67
2022/07/16 07:52:40;;;;;;;2.03;1.77;;;;;;;;;;5093818;28;20437;-66
2022/07/16 07:55:08;;;;;;;5.97;2.50;;;;;;;;;;5093930;28;20769;-67
2022/07/16 07:57:37;;;;;;;2.10;1.90;;;;;;;;;;5093559;28;20526;-67
2022/07/16 08:00:05;;;;;;;6.53;2.03;;;;;;;;;;5093455;28;20536;-67
2022/07/16 08:02:32;;;;;;;2.63;1.80;;;;;;;;;;5093635;28;20946;-67
2022/07/16 08:05:00;;;;;;;2.93;1.87;;;;;;;;;;5093710;28;20530;-67
2022/07/16 08:07:27;;;;;;;2.40;1.87;;;;;;;;;;5093469;28;20877;-67
2022/07/16 08:09:54;;;;;;;2.30;1.70;;;;;;;;;;5093287;28;20478;-67
2022/07/16 08:12:21;;;;;;;3.73;1.93;;;;;;;;;;5093515;28;20446;-66
2022/07/16 08:14:50;;;;;;;2.00;1.90;;;;;;;;;;5093647;28;20466;-66
2022/07/16 08:17:18;;;;;;;6.33;2.20;;;;;;;;;;5093386;28;20451;-67
2022/07/16 08:19:45;;;;;;;5.70;2.20;;;;;;;;;;5093039;28;20486;-67
2022/07/16 08:22:12;;;;;;;4.53;2.30;;;;;;;;;;5093460;28;20882;-66
2022/07/16 08:27:24;;;;;;;2.73;1.50;;;;;;;;;;5092998;28;20900;-67
2022/07/16 08:29:53;;;;;;;5.27;2.40;;;;;;;;;;5093158;28;20448;-65
2022/07/16 08:32:20;;;;;;;3.40;1.90;;;;;;;;;;5093374;28;20439;-65
2022/07/16 08:34:47;;;;;;;1.90;1.60;;;;;;;;;;5093436;28;20444;-65
2022/07/16 08:37:15;;;;;;;4.27;2.03;;;;;;;;;;5092773;28;20442;-65
2022/07/16 08:39:43;;;;;;;1.63;1.53;;;;;;;;;;5093692;28;20623;-65
2022/07/16 08:42:11;;;;;;;3.97;1.90;;;;;;;;;;5093721;28;20436;-67
2022/07/16 08:44:40;;;;;;;2.90;1.80;;;;;;;;;;5093523;28;20441;-70
2022/07/16 08:47:10;;;;;;;2.70;1.70;;;;;;;;;;5093300;28;20445;-65
2022/07/16 08:49:39;;;;;;;3.60;1.50;;;;;;;;;;5093265;28;20468;-65
2022/07/16 08:52:07;;;;;;;4.53;1.90;;;;;;;;;;5093386;28;20438;-65
2022/07/16 08:54:35;;;;;;;3.73;2.00;;;;;;;;;;5093262;28;20435;-65
2022/07/16 08:57:02;;;;;;;2.60;1.73;;;;;;;;;;5093154;28;20432;-65
2022/07/16 08:59:29;;;;;;;6.07;2.50;;;;;;;;;;5092789;28;20480;-64
2022/07/16 09:01:57;;;;;;;5.90;2.03;;;;;;;;;;5093284;28;21008;-65
2022/07/16 09:04:25;;;;;;;1.77;1.67;;;;;;;;;;5093090;28;20444;-65
2022/07/16 09:06:53;;;;;;;5.07;2.30;;;;;;;;;;5093062;28;20539;-65
2022/07/16 09:09:20;;;;;;;9.93;2.60;;;;;;;;;;5092746;28;20454;-65
2022/07/16 09:11:47;;;;;;;3.70;1.87;;;;;;;;;;5093051;28;20520;-65
2022/07/16 09:14:16;;;;;;;3.83;2.57;;;;;;;;;;5096595;28;20476;-65
2022/07/16 09:16:45;;;;;;;7.67;2.10;;;;;;;;;;5097208;28;20917;-65
2022/07/16 09:19:13;;;;;;;3.70;2.53;;;;;;;;;;5096727;28;20559;-65
2022/07/16 09:21:59;;;;;;;2.40;1.53;;;;;;;;;;5096302;28;21015;-64
2022/07/16 09:24:32;;;;;;;5.67;1.93;;;;;;;;;;5096816;28;20865;-65
2022/07/16 09:27:01;;;;;;;3.17;1.70;;;;;;;;;;5096945;28;20433;-65
2022/07/16 09:29:28;;;;;;;7.53;1.67;;;;;;;;;;5096598;28;20876;-65
2022/07/16 09:31:56;;;;;;;7.47;2.07;;;;;;;;;;5096659;28;20442;-65
2022/07/16 09:34:23;;;;;;;3.60;2.13;;;;;;;;;;5096476;28;20450;-65
2022/07/16 09:36:58;;;;;;;4.60;1.93;;;;;;;;;;5095947;28;20976;-65
2022/07/16 09:39:26;;;;;;;7.83;2.00;;;;;;;;;;5095910;28;20475;-65
2022/07/16 09:41:53;;;;;;;7.20;1.63;;;;;;;;;;5095891;28;20528;-65
2022/07/16 09:44:23;;;;;;;6.90;1.60;;;;;;;;;;5096819;28;20470;-65
2022/07/16 09:47:06;;;;;;;4.30;1.83;;;;;;;;;;5096785;28;20443;-65
2022/07/16 09:49:36;;;;;;;6.70;1.80;;;;;;;;;;5096204;28;20496;-67
2022/07/16 09:52:05;;;;;;;3.23;1.97;;;;;;;;;;5096534;28;20853;-64
2022/07/16 09:54:33;;;;;;;3.03;1.63;;;;;;;;;;5096146;28;20540;-64
2022/07/16 09:57:11;;;;;;;3.00;1.70;;;;;;;;;;5096032;28;20853;-64
2022/07/16 09:59:39;;;;;;;2.90;1.70;;;;;;;;;;5095889;28;20890;-64
2022/07/16 10:02:06;;;;;;;3.60;1.50;;;;;;;;;;5095827;28;20527;-64
2022/07/16 10:04:33;;;;;;;3.57;1.70;;;;;;;;;;5096098;28;20518;-65
2022/07/16 10:07:01;;;;;;;2.33;1.57;;;;;;;;;;5095881;28;20521;-65
2022/07/16 10:09:29;;;;;;;2.30;1.80;;;;;;;;;;5082900;28;20947;-65
2022/07/16 10:11:58;;;;;;;1.97;1.57;;;;;;;;;;5075474;28;20445;-65
2022/07/16 10:14:25;;;;;;;3.27;1.90;;;;;;;;;;5074674;28;20474;-64
2022/07/16 10:16:58;;;;;;;4.90;2.27;;;;;;;;;;5075345;28;20541;-65
2022/07/16 10:19:34;;;;;;;2.90;1.77;;;;;;;;;;5075245;28;20827;-65
2022/07/16 10:22:16;;;;;;;4.10;1.80;;;;;;;;;;5075038;28;20981;-65
2022/07/16 10:24:48;;;;;;;3.07;1.80;;;;;;;;;;5075208;28;20537;-65
2022/07/16 10:27:34;;;;;;;2.63;1.77;;;;;;;;;;5074673;28;20450;-65
2022/07/16 10:30:14;;;;;;;4.40;1.80;;;;;;;;;;5074680;28;20427;-64
2022/07/16 10:33:00;;;;;;;1.93;1.50;;;;;;;;;;5074668;28;20431;-65
2022/07/16 10:35:31;;;;;;;2.67;1.70;;;;;;;;;;5075264;28;20778;-65
2022/07/16 10:38:05;;;;;;;3.73;1.80;;;;;;;;;;5074532;28;20438;-65
2022/07/16 10:40:36;;;;;;;3.77;1.80;;;;;;;;;;5094667;28;20486;-65
2022/07/16 10:43:13;;;;;;;5.20;2.40;;;;;;;;;;5094721;28;20433;-65
2022/07/16 10:45:50;;;;;;;1.97;1.70;;;;;;;;;;5095043;28;20513;-65
2022/07/16 10:48:17;;;;;;;4.20;1.90;;;;;;;;;;5094901;28;20433;-65
2022/07/16 10:51:07;;;;;;;2.83;1.77;;;;;;;;;;5095563;28;20446;-65
2022/07/16 10:54:09;;;;;;;8.23;2.07;;;;;;;;;;5094400;28;20542;-65
2022/07/16 10:56:38;;;;;;;4.37;1.80;;;;;;;;;;5094559;28;20484;-65
2022/07/16 10:59:06;;;;;;;3.10;1.60;;;;;;;;;;5094943;28;20564;-64
2022/07/16 11:01:33;;;;;;;7.90;2.00;;;;;;;;;;5094707;28;20868;-65
2022/07/16 11:04:02;;;;;;;4.23;1.70;;;;;;;;;;5094189;28;20453;-65
2022/07/16 11:06:30;;;;;;;4.03;1.63;;;;;;;;;;5094177;28;20445;-65
2022/07/16 11:08:57;;;;;;;3.67;1.43;;;;;;;;;;5094478;28;20865;-65
2022/07/16 11:11:25;;;;;;;9.60;1.63;;;;;;;;;;5094223;28;20529;-64
2022/07/16 11:13:55;;;;;;;2.50;1.50;;;;;;;;;;5094433;28;20506;-64
2022/07/16 11:16:22;;;;;;;2.37;1.40;;;;;;;;;;5094102;28;20533;-65
2022/07/16 11:18:49;;;;;;;2.40;1.50;;;;;;;;;;5094069;28;21011;-64
2022/07/16 11:21:16;;;;;;;4.67;1.60;;;;;;;;;;5093952;28;20502;-64
2022/07/16 11:23:48;;;;;;;2.30;1.40;;;;;;;;;;5094139;28;20849;-66
2022/07/16 11:26:16;;;;;;;3.80;1.70;;;;;;;;;;5094106;28;20480;-65
2022/07/16 11:28:52;;;;;;;3.53;1.47;;;;;;;;;;5093731;28;20471;-65
2022/07/16 11:31:26;;;;;;;2.83;1.37;;;;;;;;;;5094177;28;20534;-65
2022/07/16 11:33:54;;;;;;;2.17;1.40;;;;;;;;;;5094336;28;20505;-65
2022/07/16 11:36:21;;;;;;;2.43;1.40;;;;;;;;;;5093310;28;20530;-64
2022/07/16 11:38:48;;;;;;;3.83;1.53;;;;;;;;;;5093579;28;20451;-65
2022/07/16 11:41:16;;;;;;;1.70;1.60;;;;;;;;;;5094004;28;20798;-65
2022/07/16 11:43:43;;;;;;;3.23;1.60;;;;;;;;;;5094173;28;20450;-65
2022/07/16 11:46:21;;;;;;;3.40;1.60;;;;;;;;;;5094281;28;20556;-65
2022/07/16 11:48:50;;;;;;;5.23;2.03;;;;;;;;;;5094368;28;20452;-65
2022/07/16 11:51:17;;;;;;;4.27;1.50;;;;;;;;;;5093605;28;20532;-65
2022/07/16 11:53:48;;;;;;;7.00;1.97;;;;;;;;;;5093625;28;20451;-65
2022/07/16 11:56:15;;;;;;;1.87;1.30;;;;;;;;;;5094070;28;20524;-65
2022/07/16 11:58:42;;;;;;;3.27;1.57;;;;;;;;;;5093429;28;20444;-65
2022/07/16 12:01:10;;;;;;;5.90;1.57;;;;;;;;;;5093456;28;20473;-65
2022/07/16 12:03:37;;;;;;;2.23;1.30;;;;;;;;;;5093962;28;20452;-65
2022/07/16 12:06:08;;;;;;;5.90;1.50;;;;;;;;;;5093711;28;20434;-65
2022/07/16 12:08:36;;;;;;;8.63;1.97;;;;;;;;;;5094205;28;20467;-65
2022/07/16 12:11:05;;;;;;;3.33;1.30;;;;;;;;;;5093416;28;20515;-65
2022/07/16 12:13:32;;;;;;;3.70;1.50;;;;;;;;;;5093263;28;20556;-65
2022/07/16 12:16:01;;;;;;;1.60;1.33;;;;;;;;;;5093659;28;20504;-65
2022/07/16 12:18:29;;;;;;;3.20;1.70;;;;;;;;;;5093367;28;20488;-65
2022/07/16 12:21:16;;;;;;;2.90;1.40;;;;;;;;;;5093417;28;20839;-64
2022/07/16 12:23:46;;;;;;;4.20;1.43;;;;;;;;;;5093205;28;20513;-65
2022/07/16 12:26:13;;;;;;;2.90;1.60;;;;;;;;;;5093392;28;20786;-65
2022/07/16 12:28:51;;;;;;;3.00;1.50;;;;;;;;;;5093464;28;20552;-65
2022/07/16 12:31:18;;;;;;;3.60;2.50;;;;;;;;;;5093978;28;20431;-65
2022/07/16 12:33:51;;;;;;;2.60;1.53;;;;;;;;;;5093217;28;20522;-65
2022/07/16 12:36:19;;;;;;;2.43;1.40;;;;;;;;;;5093084;28;20512;-65
2022/07/16 12:38:51;;;;;;;6.10;1.47;;;;;;;;;;5093075;28;20499;-65
2022/07/16 12:41:21;;;;;;;1.40;1.30;;;;;;;;;;5093177;28;20506;-65
2022/07/16 12:43:49;;;;;;;5.00;1.40;;;;;;;;;;5093045;28;20445;-65
2022/07/16 12:46:17;;;;;;;1.50;1.40;;;;;;;;;;5093147;28;20443;-65
2022/07/16 12:48:45;;;;;;;2.23;1.33;;;;;;;;;;5096293;28;20478;-65
2022/07/16 12:51:14;;;;;;;2.87;1.57;;;;;;;;;;5096848;28;20443;-64
2022/07/16 12:53:41;;;;;;;7.00;1.80;;;;;;;;;;5096810;28;20450;-65
2022/07/16 12:58:55;;;;;;;2.60;1.60;;;;;;;;;;5096984;28;20929;-65
2022/07/16 13:01:24;;;;;;;3.30;1.50;;;;;;;;;;5096641;28;20570;-65
2022/07/16 13:03:51;;;;;;;5.47;2.63;;;;;;;;;;5096636;28;20439;-64
2022/07/16 13:06:18;;;;;;;5.07;1.57;;;;;;;;;;5097059;28;20951;-64
2022/07/16 13:08:46;;;;;;;7.30;3.27;;;;;;;;;;5096599;28;20440;-64
2022/07/16 13:11:17;;;;;;;2.70;1.33;;;;;;;;;;5096736;28;20546;-64
2022/07/16 13:13:45;;;;;;;2.50;1.40;;;;;;;;;;5096549;28;20557;-64
2022/07/16 13:16:12;;;;;;;3.30;1.60;;;;;;;;;;5096595;28;20435;-64
2022/07/16 13:18:40;;;;;;;4.60;1.37;;;;;;;;;;5096280;28;20439;-64
2022/07/16 13:21:07;;;;;;;2.27;1.60;;;;;;;;;;5096497;28;20511;-64
2022/07/16 13:23:35;;;;;;;1.67;1.40;;;;;;;;;;5096614;28;20865;-64
2022/07/16 13:26:02;;;;;;;2.63;1.67;;;;;;;;;;5095979;28;20596;-65
2022/07/16 13:28:31;;;;;;;2.23;1.33;;;;;;;;;;5097282;28;20876;-65
2022/07/16 13:30:58;;;;;;;2.77;1.17;;;;;;;;;;5095603;28;20858;-64
2022/07/16 13:33:26;;;;;;;2.93;1.40;;;;;;;;;;5096127;28;20527;-64
2022/07/16 13:35:53;;;;;;;2.07;1.40;;;;;;;;;;5096307;28;20486;-64
2022/07/16 13:38:20;;;;;;;2.13;1.60;;;;;;;;;;5095989;28;20439;-64
2022/07/16 13:40:48;;;;;;;5.43;1.63;;;;;;;;;;5096329;28;20892;-64
2022/07/16 13:43:16;;;;;;;3.33;1.60;;;;;;;;;;5095929;28;20475;-64
2022/07/16 13:45:45;;;;;;;2.80;1.30;;;;;;;;;;5096171;28;20443;-64
2022/07/16 13:48:14;;;;;;;2.23;1.20;;;;;;;;;;5096163;28;20440;-65
2022/07/16 13:50:42;;;;;;;3.57;1.40;;;;;;;;;;5096115;28;20451;-64
2022/07/16 13:53:10;;;;;;;2.77;1.83;;;;;;;;;;5096056;28;20494;-64
2022/07/16 13:55:37;;;;;;;2.50;1.20;;;;;;;;;;5096013;28;20445;-64
2022/07/16 14:00:54;;;;;;;5.40;2.33;;;;;;;;;;5089989;28;20956;-64
2022/07/16 14:03:24;;;;;;;4.00;1.70;;;;;;;;;;5095513;28;20440;-64
2022/07/16 14:05:52;;;;;;;4.30;1.70;;;;;;;;;;5096143;28;20429;-64
2022/07/16 14:08:19;;;;;;;4.50;1.40;;;;;;;;;;5096189;28;20444;-65
2022/07/16 14:10:47;;;;;;;2.10;1.40;;;;;;;;;;5096035;28;20471;-64
2022/07/16 14:13:14;;;;;;;2.80;1.50;;;;;;;;;;5095069;28;20441;-64
2022/07/16 14:15:41;;;;;;;1.97;1.43;;;;;;;;;;5095723;28;20473;-63
2022/07/16 14:18:11;;;;;;;2.40;1.30;;;;;;;;;;5095565;28;20525;-64
2022/07/16 14:20:39;;;;;;;3.17;1.80;;;;;;;;;;5095821;28;20480;-64
2022/07/16 14:23:07;;;;;;;5.70;1.67;;;;;;;;;;5095473;28;20523;-64
2022/07/16 14:25:36;;;;;;;4.93;1.87;;;;;;;;;;5095398;28;20499;-64
2022/07/16 14:28:03;;;;;;;4.70;3.10;;;;;;;;;;5095190;28;21028;-64
2022/07/16 14:30:30;;;;;;;5.77;2.40;;;;;;;;;;5095641;28;20881;-64
2022/07/16 14:32:57;;;;;;;4.03;3.27;;;;;;;;;;5094821;28;21030;-64
2022/07/16 14:35:26;;;;;;;6.07;5.30;;;;;;;;;;5095039;28;20524;-64
2022/07/16 14:37:53;;;;;;;3.93;1.43;;;;;;;;;;5095001;28;20860;-64
2022/07/16 14:40:21;;;;;;;2.10;1.50;;;;;;;;;;5094681;28;21002;-63
2022/07/16 14:42:49;;;;;;;2.60;1.33;;;;;;;;;;5094919;28;20443;-64
2022/07/16 14:45:17;;;;;;;4.67;1.90;;;;;;;;;;5094622;28;20993;-64
2022/07/16 14:47:44;;;;;;;5.87;1.77;;;;;;;;;;5094838;28;20515;-64
2022/07/16 14:50:12;;;;;;;7.37;5.00;;;;;;;;;;5095045;28;20555;-64
2022/07/16 14:52:42;;;;;;;3.10;2.00;;;;;;;;;;5094744;28;20520;-63
2022/07/16 14:55:10;;;;;;;6.20;3.60;;;;;;;;;;5094814;28;20531;-64
2022/07/16 14:57:37;;;;;;;4.57;3.43;;;;;;;;;;5094738;28;20472;-64
2022/07/16 15:00:06;;;;;;;3.90;1.30;;;;;;;;;;5094543;28;20535;-65
2022/07/16 15:02:33;;;;;;;2.53;1.80;;;;;;;;;;5094114;28;20483;-64